sensor_id;sensor_type;location;lat;lon;timestamp;pressure;altitude;pressure_sealevel;temperature;humidity
77279;BME280;66332;50.436;15.378;2024-02-21T00:03:43;98745.50;;;5.37;100.00
77279;BME280;66332;50.436;15.378;2024-02-21T00:08:24;98744.31;;;5.20;100.00
77279;BME280;66332;50.436;15.378;2024-02-21T00:13:05;98738.03;;;5.23;100.00
77279;BME280;66332;50.436;15.378;2024-02-21T00:17:46;98737.22;;;5.22;100.00
77279;BME280;66332;50.436;15.378;2024-02-21T00:22:27;98728.75;;;5.30;100.00
77279;BME280;66332;50.436;15.378;2024-02-21T00:27:09;98729.53;;;5.21;100.00
77279;BME280;66332;50.436;15.378;2024-02-21T00:31:50;98728.19;;;5.26;100.00
77279;BME280;66332;50.436;15.378;2024-02-21T00:36:31;98717.31;;;5.21;100.00
77279;BME280;66332;50.436;15.378;2024-02-21T00:41:12;98718.13;;;5.12;100.00
77279;BME280;66332;50.436;15.378;2024-02-21T00:45:53;98702.88;;;5.07;100.00
77279;BME280;66332;50.436;15.378;2024-02-21T00:50:33;98706.19;;;5.10;100.00
77279;BME280;66332;50.436;15.378;2024-02-21T00:55:14;98697.56;;;5.28;100.00
77279;BME280;66332;50.436;15.378;2024-02-21T00:59:55;98699.34;;;5.18;100.00
77279;BME280;66332;50.436;15.378;2024-02-21T01:04:36;98698.53;;;5.18;100.00
77279;BME280;66332;50.436;15.378;2024-02-21T01:09:17;98705.91;;;5.13;100.00
77279;BME280;66332;50.436;15.378;2024-02-21T01:13:57;98692.56;;;4.96;100.00
77279;BME280;66332;50.436;15.378;2024-02-21T01:18:38;98685.94;;;4.92;100.00
77279;BME280;66332;50.436;15.378;2024-02-21T01:23:19;98683.59;;;4.89;100.00
77279;BME280;66332;50.436;15.378;2024-02-21T01:28:00;98668.50;;;4.83;100.00
77279;BME280;66332;50.436;15.378;2024-02-21T01:32:41;98660.94;;;4.80;100.00
77279;BME280;66332;50.436;15.378;2024-02-21T01:37:22;98648.75;;;4.80;100.00
77279;BME280;66332;50.436;15.378;2024-02-21T01:42:03;98640.50;;;4.66;100.00
77279;BME280;66332;50.436;15.378;2024-02-21T01:46:43;98634.16;;;4.58;100.00
77279;BME280;66332;50.436;15.378;2024-02-21T01:51:25;98638.25;;;4.51;100.00
77279;BME280;66332;50.436;15.378;2024-02-21T01:56:06;98638.50;;;4.48;100.00
77279;BME280;66332;50.436;15.378;2024-02-21T02:00:47;98631.06;;;4.44;100.00
77279;BME280;66332;50.436;15.378;2024-02-21T02:05:28;98628.84;;;4.29;100.00
77279;BME280;66332;50.436;15.378;2024-02-21T02:10:09;98619.63;;;4.25;100.00
77279;BME280;66332;50.436;15.378;2024-02-21T02:15:00;98615.81;;;4.29;100.00
77279;BME280;66332;50.436;15.378;2024-02-21T02:19:41;98607.69;;;4.23;100.00
77279;BME280;66332;50.436;15.378;2024-02-21T02:24:24;98606.69;;;4.45;100.00
77279;BME280;66332;50.436;15.378;2024-02-21T02:29:05;98611.22;;;4.52;100.00
77279;BME280;66332;50.436;15.378;2024-02-21T02:33:46;98612.69;;;4.35;100.00
77279;BME280;66332;50.436;15.378;2024-02-21T02:38:27;98611.84;;;4.35;100.00
77279;BME280;66332;50.436;15.378;2024-02-21T02:43:07;98605.97;;;4.33;100.00
77279;BME280;66332;50.436;15.378;2024-02-21T02:47:49;98600.63;;;4.34;100.00
77279;BME280;66332;50.436;15.378;2024-02-21T02:52:29;98593.31;;;4.28;100.00
77279;BME280;66332;50.436;15.378;2024-02-21T02:57:10;98584.66;;;4.18;100.00
77279;BME280;66332;50.436;15.378;2024-02-21T03:01:51;98578.00;;;4.35;100.00
77279;BME280;66332;50.436;15.378;2024-02-21T03:06:32;98568.44;;;4.35;100.00
77279;BME280;66332;50.436;15.378;2024-02-21T03:11:13;98575.09;;;4.28;100.00
77279;BME280;66332;50.436;15.378;2024-02-21T03:15:54;98562.78;;;4.30;100.00
77279;BME280;66332;50.436;15.378;2024-02-21T03:20:35;98573.19;;;4.30;100.00
77279;BME280;66332;50.436;15.378;2024-02-21T03:25:15;98568.75;;;4.52;100.00
77279;BME280;66332;50.436;15.378;2024-02-21T03:29:56;98565.56;;;4.39;100.00
77279;BME280;66332;50.436;15.378;2024-02-21T03:34:37;98567.22;;;4.49;100.00
77279;BME280;66332;50.436;15.378;2024-02-21T03:39:18;98562.91;;;4.59;100.00
77279;BME280;66332;50.436;15.378;2024-02-21T03:43:58;98577.06;;;4.86;100.00
77279;BME280;66332;50.436;15.378;2024-02-21T03:48:39;98572.94;;;4.83;100.00
77279;BME280;66332;50.436;15.378;2024-02-21T03:53:20;98558.53;;;4.89;100.00
77279;BME280;66332;50.436;15.378;2024-02-21T03:58:01;98566.78;;;4.94;100.00
77279;BME280;66332;50.436;15.378;2024-02-21T04:02:41;98568.78;;;4.71;100.00
77279;BME280;66332;50.436;15.378;2024-02-21T04:07:22;98550.97;;;4.57;100.00
77279;BME280;66332;50.436;15.378;2024-02-21T04:12:03;98551.44;;;4.41;100.00
77279;BME280;66332;50.436;15.378;2024-02-21T04:16:44;98546.22;;;4.41;100.00
77279;BME280;66332;50.436;15.378;2024-02-21T04:21:25;98556.00;;;4.49;100.00
77279;BME280;66332;50.436;15.378;2024-02-21T04:26:06;98539.59;;;4.58;100.00
77279;BME280;66332;50.436;15.378;2024-02-21T04:30:47;98537.69;;;4.60;100.00
77279;BME280;66332;50.436;15.378;2024-02-21T04:35:27;98530.94;;;4.57;100.00
77279;BME280;66332;50.436;15.378;2024-02-21T04:40:08;98534.63;;;4.45;100.00
77279;BME280;66332;50.436;15.378;2024-02-21T04:44:49;98529.84;;;4.20;100.00
77279;BME280;66332;50.436;15.378;2024-02-21T04:49:30;98522.00;;;4.00;100.00
77279;BME280;66332;50.436;15.378;2024-02-21T04:54:11;98511.03;;;3.97;100.00
77279;BME280;66332;50.436;15.378;2024-02-21T04:58:52;98508.25;;;3.88;100.00
77279;BME280;66332;50.436;15.378;2024-02-21T05:03:33;98509.31;;;3.86;100.00
77279;BME280;66332;50.436;15.378;2024-02-21T05:08:14;98504.13;;;3.86;100.00
77279;BME280;66332;50.436;15.378;2024-02-21T05:12:55;98505.91;;;3.85;100.00
77279;BME280;66332;50.436;15.378;2024-02-21T05:17:36;98498.88;;;3.76;100.00
77279;BME280;66332;50.436;15.378;2024-02-21T05:22:16;98499.31;;;3.81;100.00
77279;BME280;66332;50.436;15.378;2024-02-21T05:26:57;98513.88;;;3.94;100.00
77279;BME280;66332;50.436;15.378;2024-02-21T05:36:31;98505.81;;;3.97;100.00
77279;BME280;66332;50.436;15.378;2024-02-21T05:41:12;98504.25;;;3.84;100.00
77279;BME280;66332;50.436;15.378;2024-02-21T05:45:52;98498.41;;;3.92;100.00
77279;BME280;66332;50.436;15.378;2024-02-21T05:50:33;98499.06;;;3.84;100.00
77279;BME280;66332;50.436;15.378;2024-02-21T05:55:14;98499.75;;;3.86;100.00
77279;BME280;66332;50.436;15.378;2024-02-21T05:59:55;98497.53;;;3.82;100.00
77279;BME280;66332;50.436;15.378;2024-02-21T06:04:36;98498.63;;;3.79;100.00
77279;BME280;66332;50.436;15.378;2024-02-21T06:09:17;98501.19;;;4.00;100.00
77279;BME280;66332;50.436;15.378;2024-02-21T06:13:57;98495.78;;;3.92;100.00
77279;BME280;66332;50.436;15.378;2024-02-21T06:18:38;98487.22;;;3.71;100.00
77279;BME280;66332;50.436;15.378;2024-02-21T06:23:19;98502.59;;;3.83;100.00
77279;BME280;66332;50.436;15.378;2024-02-21T06:28:00;98493.88;;;3.84;100.00
77279;BME280;66332;50.436;15.378;2024-02-21T06:32:41;98498.50;;;4.81;100.00
77279;BME280;66332;50.436;15.378;2024-02-21T06:37:21;98507.13;;;4.12;100.00
77279;BME280;66332;50.436;15.378;2024-02-21T06:42:03;98490.19;;;4.27;100.00
77279;BME280;66332;50.436;15.378;2024-02-21T06:46:44;98495.22;;;4.29;100.00
77279;BME280;66332;50.436;15.378;2024-02-21T06:51:24;98493.31;;;4.21;100.00
77279;BME280;66332;50.436;15.378;2024-02-21T06:56:05;98498.38;;;4.23;100.00
77279;BME280;66332;50.436;15.378;2024-02-21T07:00:46;98501.44;;;4.37;100.00
77279;BME280;66332;50.436;15.378;2024-02-21T07:05:27;98511.28;;;4.34;100.00
77279;BME280;66332;50.436;15.378;2024-02-21T07:10:08;98505.78;;;4.27;100.00
77279;BME280;66332;50.436;15.378;2024-02-21T07:14:49;98507.13;;;4.72;100.00
77279;BME280;66332;50.436;15.378;2024-02-21T07:19:30;98502.16;;;4.49;100.00
77279;BME280;66332;50.436;15.378;2024-02-21T07:24:10;98503.97;;;4.78;100.00
77279;BME280;66332;50.436;15.378;2024-02-21T07:28:51;98498.63;;;4.79;100.00
77279;BME280;66332;50.436;15.378;2024-02-21T07:33:32;98495.47;;;4.95;100.00
77279;BME280;66332;50.436;15.378;2024-02-21T07:38:13;98495.34;;;4.97;100.00
77279;BME280;66332;50.436;15.378;2024-02-21T07:42:54;98485.19;;;5.03;100.00
77279;BME280;66332;50.436;15.378;2024-02-21T07:47:36;98479.84;;;4.95;100.00
77279;BME280;66332;50.436;15.378;2024-02-21T07:52:17;98482.28;;;5.26;100.00
77279;BME280;66332;50.436;15.378;2024-02-21T07:56:58;98474.31;;;5.37;100.00
77279;BME280;66332;50.436;15.378;2024-02-21T08:01:38;98474.06;;;5.21;100.00
77279;BME280;66332;50.436;15.378;2024-02-21T08:06:19;98468.69;;;5.32;100.00
77279;BME280;66332;50.436;15.378;2024-02-21T08:11:01;98469.53;;;5.23;100.00
77279;BME280;66332;50.436;15.378;2024-02-21T08:15:42;98461.78;;;5.50;100.00
77279;BME280;66332;50.436;15.378;2024-02-21T08:20:23;98460.16;;;5.49;100.00
77279;BME280;66332;50.436;15.378;2024-02-21T08:25:04;98457.81;;;5.46;100.00
77279;BME280;66332;50.436;15.378;2024-02-21T08:29:46;98466.63;;;5.45;100.00
77279;BME280;66332;50.436;15.378;2024-02-21T08:34:27;98466.28;;;5.68;100.00
77279;BME280;66332;50.436;15.378;2024-02-21T08:39:09;98465.41;;;5.77;100.00
77279;BME280;66332;50.436;15.378;2024-02-21T08:43:51;98449.06;;;5.85;100.00
77279;BME280;66332;50.436;15.378;2024-02-21T08:48:32;98449.00;;;6.04;100.00
77279;BME280;66332;50.436;15.378;2024-02-21T08:53:13;98454.09;;;6.06;100.00
77279;BME280;66332;50.436;15.378;2024-02-21T08:57:54;98462.34;;;6.01;100.00
77279;BME280;66332;50.436;15.378;2024-02-21T09:02:39;98457.34;;;6.35;100.00
77279;BME280;66332;50.436;15.378;2024-02-21T09:07:20;98435.41;;;6.46;100.00
77279;BME280;66332;50.436;15.378;2024-02-21T09:12:01;98445.94;;;6.72;100.00
77279;BME280;66332;50.436;15.378;2024-02-21T09:16:46;98445.13;;;6.54;100.00
77279;BME280;66332;50.436;15.378;2024-02-21T09:21:27;98457.44;;;6.61;100.00
77279;BME280;66332;50.436;15.378;2024-02-21T09:26:08;98456.84;;;6.68;100.00
77279;BME280;66332;50.436;15.378;2024-02-21T09:30:50;98465.38;;;6.70;100.00
77279;BME280;66332;50.436;15.378;2024-02-21T09:35:31;98460.28;;;7.04;100.00
77279;BME280;66332;50.436;15.378;2024-02-21T09:40:15;98451.16;;;7.08;100.00
77279;BME280;66332;50.436;15.378;2024-02-21T09:44:59;98444.03;;;7.18;100.00
77279;BME280;66332;50.436;15.378;2024-02-21T09:49:41;98426.84;;;7.33;100.00
77279;BME280;66332;50.436;15.378;2024-02-21T09:54:23;98425.78;;;7.26;100.00
77279;BME280;66332;50.436;15.378;2024-02-21T09:59:04;98409.78;;;7.03;100.00
77279;BME280;66332;50.436;15.378;2024-02-21T10:03:45;98411.94;;;7.08;100.00
77279;BME280;66332;50.436;15.378;2024-02-21T10:08:26;98414.63;;;7.16;100.00
77279;BME280;66332;50.436;15.378;2024-02-21T10:13:07;98410.81;;;7.10;100.00
77279;BME280;66332;50.436;15.378;2024-02-21T10:17:48;98415.94;;;7.20;100.00
77279;BME280;66332;50.436;15.378;2024-02-21T10:22:29;98419.44;;;7.29;100.00
77279;BME280;66332;50.436;15.378;2024-02-21T10:27:12;98409.59;;;7.23;100.00
77279;BME280;66332;50.436;15.378;2024-02-21T10:32:06;98402.41;;;7.25;100.00
77279;BME280;66332;50.436;15.378;2024-02-21T10:37:00;98398.72;;;7.35;100.00
77279;BME280;66332;50.436;15.378;2024-02-21T10:41:41;98395.66;;;7.40;100.00
77279;BME280;66332;50.436;15.378;2024-02-21T10:46:23;98393.59;;;7.52;100.00
77279;BME280;66332;50.436;15.378;2024-02-21T10:56:01;98380.56;;;8.27;98.44
77279;BME280;66332;50.436;15.378;2024-02-21T11:00:49;98359.03;;;8.58;94.39
77279;BME280;66332;50.436;15.378;2024-02-21T11:05:30;98354.25;;;8.94;91.06
77279;BME280;66332;50.436;15.378;2024-02-21T11:10:31;98368.66;;;9.23;89.28
77279;BME280;66332;50.436;15.378;2024-02-21T11:15:11;98362.63;;;8.98;94.99
77279;BME280;66332;50.436;15.378;2024-02-21T11:19:52;98352.50;;;8.62;94.94
77279;BME280;66332;50.436;15.378;2024-02-21T11:24:33;98355.53;;;8.16;96.87
77279;BME280;66332;50.436;15.378;2024-02-21T11:29:23;98342.34;;;7.84;97.94
77279;BME280;66332;50.436;15.378;2024-02-21T11:34:03;98341.06;;;7.96;100.00
77279;BME280;66332;50.436;15.378;2024-02-21T11:38:45;98341.88;;;7.96;97.89
77279;BME280;66332;50.436;15.378;2024-02-21T11:43:26;98341.88;;;7.96;98.01
77279;BME280;66332;50.436;15.378;2024-02-21T11:48:07;98333.72;;;7.99;98.83
77279;BME280;66332;50.436;15.378;2024-02-21T11:52:48;98328.47;;;7.91;100.00
77279;BME280;66332;50.436;15.378;2024-02-21T11:57:29;98319.66;;;8.00;99.44
77279;BME280;66332;50.436;15.378;2024-02-21T12:02:10;98307.22;;;8.11;98.66
77279;BME280;66332;50.436;15.378;2024-02-21T12:06:52;98294.47;;;8.16;99.04
77279;BME280;66332;50.436;15.378;2024-02-21T12:11:33;98290.09;;;8.41;96.70
77279;BME280;66332;50.436;15.378;2024-02-21T12:16:17;98276.97;;;8.65;97.21
77279;BME280;66332;50.436;15.378;2024-02-21T12:20:58;98277.78;;;8.74;95.61
77279;BME280;66332;50.436;15.378;2024-02-21T12:25:39;98274.81;;;8.77;94.02
77279;BME280;66332;50.436;15.378;2024-02-21T12:30:20;98259.06;;;8.85;95.73
77279;BME280;66332;50.436;15.378;2024-02-21T12:35:01;98248.75;;;8.84;94.35
77279;BME280;66332;50.436;15.378;2024-02-21T12:39:42;98236.66;;;8.66;96.93
77279;BME280;66332;50.436;15.378;2024-02-21T12:44:24;98232.34;;;8.98;95.21
77279;BME280;66332;50.436;15.378;2024-02-21T12:49:05;98224.81;;;8.95;96.00
77279;BME280;66332;50.436;15.378;2024-02-21T12:53:48;98211.63;;;9.03;93.79
77279;BME280;66332;50.436;15.378;2024-02-21T12:58:30;98214.31;;;9.34;93.26
77279;BME280;66332;50.436;15.378;2024-02-21T13:03:12;98216.97;;;9.57;92.73
77279;BME280;66332;50.436;15.378;2024-02-21T13:07:53;98210.91;;;9.26;92.21
77279;BME280;66332;50.436;15.378;2024-02-21T13:12:34;98194.19;;;9.18;90.71
77279;BME280;66332;50.436;15.378;2024-02-21T13:17:15;98185.72;;;9.16;90.57
77279;BME280;66332;50.436;15.378;2024-02-21T13:21:57;98176.81;;;9.26;91.26
77279;BME280;66332;50.436;15.378;2024-02-21T13:26:38;98167.78;;;9.28;89.81
77279;BME280;66332;50.436;15.378;2024-02-21T13:31:19;98161.34;;;9.31;88.23
77279;BME280;66332;50.436;15.378;2024-02-21T13:36:00;98149.19;;;9.38;89.37
77279;BME280;66332;50.436;15.378;2024-02-21T13:40:42;98147.78;;;9.50;87.66
77279;BME280;66332;50.436;15.378;2024-02-21T13:45:23;98135.47;;;9.51;87.05
77279;BME280;66332;50.436;15.378;2024-02-21T13:50:05;98131.69;;;9.53;86.30
77279;BME280;66332;50.436;15.378;2024-02-21T13:54:47;98125.84;;;9.66;86.78
77279;BME280;66332;50.436;15.378;2024-02-21T13:59:28;98122.16;;;9.52;86.78
77279;BME280;66332;50.436;15.378;2024-02-21T14:04:08;98117.97;;;9.43;86.45
77279;BME280;66332;50.436;15.378;2024-02-21T14:08:49;98120.50;;;9.59;86.02
77279;BME280;66332;50.436;15.378;2024-02-21T14:13:30;98117.50;;;9.39;84.23
77279;BME280;66332;50.436;15.378;2024-02-21T14:18:11;98114.03;;;9.47;82.26
77279;BME280;66332;50.436;15.378;2024-02-21T14:22:53;98119.69;;;9.59;82.28
77279;BME280;66332;50.436;15.378;2024-02-21T14:27:34;98103.13;;;9.96;81.75
77279;BME280;66332;50.436;15.378;2024-02-21T14:32:17;98100.69;;;10.09;79.85
77279;BME280;66332;50.436;15.378;2024-02-21T14:36:58;98091.59;;;12.43;69.80
77279;BME280;66332;50.436;15.378;2024-02-21T14:41:38;98086.59;;;13.03;64.22
77279;BME280;66332;50.436;15.378;2024-02-21T14:46:20;98071.69;;;12.82;65.32
77279;BME280;66332;50.436;15.378;2024-02-21T14:51:01;98065.25;;;12.50;66.62
77279;BME280;66332;50.436;15.378;2024-02-21T14:55:41;98061.31;;;11.98;69.08
77279;BME280;66332;50.436;15.378;2024-02-21T15:00:22;98050.13;;;11.96;71.29
77279;BME280;66332;50.436;15.378;2024-02-21T15:05:10;98050.03;;;11.82;71.41
77279;BME280;66332;50.436;15.378;2024-02-21T15:09:52;98048.66;;;11.65;72.00
77279;BME280;66332;50.436;15.378;2024-02-21T15:14:33;98058.44;;;11.71;71.61
77279;BME280;66332;50.436;15.378;2024-02-21T15:19:14;98036.81;;;11.26;74.08
77279;BME280;66332;50.436;15.378;2024-02-21T15:23:55;98038.88;;;10.73;78.46
77279;BME280;66332;50.436;15.378;2024-02-21T15:28:37;98038.97;;;11.01;77.00
77279;BME280;66332;50.436;15.378;2024-02-21T15:33:18;98041.34;;;11.60;75.77
77279;BME280;66332;50.436;15.378;2024-02-21T15:37:59;98031.25;;;10.78;79.38
77279;BME280;66332;50.436;15.378;2024-02-21T15:42:40;98018.38;;;11.26;77.34
77279;BME280;66332;50.436;15.378;2024-02-21T15:47:21;98017.19;;;10.71;78.24
77279;BME280;66332;50.436;15.378;2024-02-21T15:52:04;98012.38;;;10.38;78.24
77279;BME280;66332;50.436;15.378;2024-02-21T15:56:45;98008.00;;;10.01;80.38
77279;BME280;66332;50.436;15.378;2024-02-21T16:01:26;97996.94;;;9.61;83.84
77279;BME280;66332;50.436;15.378;2024-02-21T16:06:06;97995.94;;;9.24;87.17
77279;BME280;66332;50.436;15.378;2024-02-21T16:10:48;97993.78;;;8.82;90.63
77279;BME280;66332;50.436;15.378;2024-02-21T16:15:28;97990.63;;;8.63;91.47
77279;BME280;66332;50.436;15.378;2024-02-21T16:20:10;97994.22;;;8.70;91.29
77279;BME280;66332;50.436;15.378;2024-02-21T16:24:51;97986.19;;;8.33;93.51
77279;BME280;66332;50.436;15.378;2024-02-21T16:29:34;97989.22;;;8.05;94.92
77279;BME280;66332;50.436;15.378;2024-02-21T16:34:16;97978.81;;;7.89;96.43
77279;BME280;66332;50.436;15.378;2024-02-21T16:38:59;97980.84;;;7.54;98.04
77279;BME280;66332;50.436;15.378;2024-02-21T16:43:44;97985.28;;;7.45;98.73
77279;BME280;66332;50.436;15.378;2024-02-21T16:48:25;97977.59;;;7.44;98.97
77279;BME280;66332;50.436;15.378;2024-02-21T16:53:05;97959.97;;;7.38;98.45
77279;BME280;66332;50.436;15.378;2024-02-21T16:57:46;97957.88;;;7.00;100.00
77279;BME280;66332;50.436;15.378;2024-02-21T17:02:27;97953.13;;;6.79;100.00
77279;BME280;66332;50.436;15.378;2024-02-21T17:07:09;97949.47;;;6.48;100.00
77279;BME280;66332;50.436;15.378;2024-02-21T17:11:50;97945.56;;;6.60;100.00
77279;BME280;66332;50.436;15.378;2024-02-21T17:16:31;97941.00;;;6.78;100.00
77279;BME280;66332;50.436;15.378;2024-02-21T17:21:12;97930.72;;;6.52;100.00
77279;BME280;66332;50.436;15.378;2024-02-21T17:25:53;97913.22;;;6.44;100.00
77279;BME280;66332;50.436;15.378;2024-02-21T17:30:34;97916.31;;;6.40;100.00
77279;BME280;66332;50.436;15.378;2024-02-21T17:35:16;97919.72;;;6.32;100.00
77279;BME280;66332;50.436;15.378;2024-02-21T17:39:57;97912.38;;;5.85;100.00
77279;BME280;66332;50.436;15.378;2024-02-21T17:44:38;97913.75;;;5.97;100.00
77279;BME280;66332;50.436;15.378;2024-02-21T17:49:22;97899.47;;;5.84;100.00
77279;BME280;66332;50.436;15.378;2024-02-21T17:54:03;97894.06;;;6.03;100.00
77279;BME280;66332;50.436;15.378;2024-02-21T17:58:44;97895.25;;;5.83;100.00
77279;BME280;66332;50.436;15.378;2024-02-21T18:03:25;97894.22;;;5.67;100.00
77279;BME280;66332;50.436;15.378;2024-02-21T18:08:09;97888.94;;;5.59;100.00
77279;BME280;66332;50.436;15.378;2024-02-21T18:12:50;97892.22;;;5.61;100.00
77279;BME280;66332;50.436;15.378;2024-02-21T18:17:31;97877.66;;;5.50;100.00
77279;BME280;66332;50.436;15.378;2024-02-21T18:22:13;97881.44;;;5.56;100.00
77279;BME280;66332;50.436;15.378;2024-02-21T18:26:54;97879.41;;;5.84;100.00
77279;BME280;66332;50.436;15.378;2024-02-21T18:31:36;97881.97;;;5.68;100.00
77279;BME280;66332;50.436;15.378;2024-02-21T18:36:18;97867.59;;;5.56;100.00
77279;BME280;66332;50.436;15.378;2024-02-21T18:40:59;97865.53;;;5.33;100.00
77279;BME280;66332;50.436;15.378;2024-02-21T18:45:40;97861.44;;;5.31;100.00
77279;BME280;66332;50.436;15.378;2024-02-21T18:50:21;97861.25;;;5.24;100.00
77279;BME280;66332;50.436;15.378;2024-02-21T18:55:04;97864.91;;;5.13;100.00
77279;BME280;66332;50.436;15.378;2024-02-21T18:59:45;97859.50;;;5.06;100.00
77279;BME280;66332;50.436;15.378;2024-02-21T19:04:27;97842.63;;;4.93;100.00
77279;BME280;66332;50.436;15.378;2024-02-21T19:09:08;97850.63;;;4.91;100.00
77279;BME280;66332;50.436;15.378;2024-02-21T19:13:48;97854.28;;;5.06;100.00
77279;BME280;66332;50.436;15.378;2024-02-21T19:18:29;97845.50;;;4.81;100.00
77279;BME280;66332;50.436;15.378;2024-02-21T19:23:10;97833.00;;;4.85;100.00
77279;BME280;66332;50.436;15.378;2024-02-21T19:27:52;97827.53;;;4.96;100.00
77279;BME280;66332;50.436;15.378;2024-02-21T19:32:33;97820.34;;;4.90;100.00
77279;BME280;66332;50.436;15.378;2024-02-21T19:37:13;97819.28;;;4.83;100.00
77279;BME280;66332;50.436;15.378;2024-02-21T19:41:54;97791.63;;;4.82;100.00
77279;BME280;66332;50.436;15.378;2024-02-21T19:46:35;97798.25;;;4.76;100.00
77279;BME280;66332;50.436;15.378;2024-02-21T19:51:16;97786.72;;;4.79;100.00
77279;BME280;66332;50.436;15.378;2024-02-21T19:55:58;97795.72;;;4.85;100.00
77279;BME280;66332;50.436;15.378;2024-02-21T20:00:39;97792.50;;;4.65;100.00
77279;BME280;66332;50.436;15.378;2024-02-21T20:05:20;97789.13;;;4.72;100.00
77279;BME280;66332;50.436;15.378;2024-02-21T20:10:03;97765.03;;;4.70;100.00
77279;BME280;66332;50.436;15.378;2024-02-21T20:14:47;97773.38;;;4.56;100.00
77279;BME280;66332;50.436;15.378;2024-02-21T20:19:28;97768.47;;;4.53;100.00
77279;BME280;66332;50.436;15.378;2024-02-21T20:24:09;97759.69;;;4.28;100.00
77279;BME280;66332;50.436;15.378;2024-02-21T20:28:51;97751.44;;;4.32;100.00
77279;BME280;66332;50.436;15.378;2024-02-21T20:33:31;97749.28;;;4.28;100.00
77279;BME280;66332;50.436;15.378;2024-02-21T20:38:12;97744.25;;;4.26;100.00
77279;BME280;66332;50.436;15.378;2024-02-21T20:42:53;97734.44;;;4.46;100.00
77279;BME280;66332;50.436;15.378;2024-02-21T20:47:34;97729.22;;;4.46;100.00
77279;BME280;66332;50.436;15.378;2024-02-21T20:52:15;97725.72;;;4.55;100.00
77279;BME280;66332;50.436;15.378;2024-02-21T20:56:56;97706.88;;;4.62;100.00
77279;BME280;66332;50.436;15.378;2024-02-21T21:01:36;97703.41;;;4.53;100.00
77279;BME280;66332;50.436;15.378;2024-02-21T21:06:17;97690.34;;;4.45;100.00
77279;BME280;66332;50.436;15.378;2024-02-21T21:10:59;97665.94;;;4.20;100.00
77279;BME280;66332;50.436;15.378;2024-02-21T21:15:40;97659.31;;;4.25;100.00
77279;BME280;66332;50.436;15.378;2024-02-21T21:20:20;97656.56;;;4.27;100.00
77279;BME280;66332;50.436;15.378;2024-02-21T21:25:07;97660.19;;;4.34;100.00
77279;BME280;66332;50.436;15.378;2024-02-21T21:29:49;97654.44;;;4.56;100.00
77279;BME280;66332;50.436;15.378;2024-02-21T21:34:33;97639.72;;;4.39;100.00
77279;BME280;66332;50.436;15.378;2024-02-21T21:39:14;97643.66;;;4.43;100.00
77279;BME280;66332;50.436;15.378;2024-02-21T21:43:57;97636.34;;;4.47;100.00
77279;BME280;66332;50.436;15.378;2024-02-21T21:48:38;97638.28;;;4.45;100.00
77279;BME280;66332;50.436;15.378;2024-02-21T21:53:19;97640.59;;;4.56;100.00
77279;BME280;66332;50.436;15.378;2024-02-21T21:58:00;97643.88;;;4.58;100.00
77279;BME280;66332;50.436;15.378;2024-02-21T22:02:41;97637.25;;;4.64;100.00
77279;BME280;66332;50.436;15.378;2024-02-21T22:07:22;97631.44;;;4.78;100.00
77279;BME280;66332;50.436;15.378;2024-02-21T22:12:03;97623.72;;;4.68;100.00
77279;BME280;66332;50.436;15.378;2024-02-21T22:16:44;97625.47;;;4.51;100.00
77279;BME280;66332;50.436;15.378;2024-02-21T22:21:25;97626.16;;;4.62;100.00
77279;BME280;66332;50.436;15.378;2024-02-21T22:26:05;97634.19;;;4.76;100.00
77279;BME280;66332;50.436;15.378;2024-02-21T22:30:46;97634.38;;;4.75;100.00
77279;BME280;66332;50.436;15.378;2024-02-21T22:35:27;97615.28;;;4.66;100.00
77279;BME280;66332;50.436;15.378;2024-02-21T22:40:08;97612.94;;;4.55;100.00
77279;BME280;66332;50.436;15.378;2024-02-21T22:44:49;97604.97;;;4.56;100.00
77279;BME280;66332;50.436;15.378;2024-02-21T22:49:30;97604.34;;;4.54;100.00
77279;BME280;66332;50.436;15.378;2024-02-21T22:54:11;97594.56;;;4.56;100.00
77279;BME280;66332;50.436;15.378;2024-02-21T22:58:52;97597.47;;;4.45;100.00
77279;BME280;66332;50.436;15.378;2024-02-21T23:03:33;97582.16;;;4.42;100.00
77279;BME280;66332;50.436;15.378;2024-02-21T23:08:14;97570.00;;;4.51;100.00
77279;BME280;66332;50.436;15.378;2024-02-21T23:12:54;97559.13;;;4.64;100.00
77279;BME280;66332;50.436;15.378;2024-02-21T23:17:36;97552.31;;;4.71;100.00
77279;BME280;66332;50.436;15.378;2024-02-21T23:22:16;97543.53;;;4.72;100.00
77279;BME280;66332;50.436;15.378;2024-02-21T23:26:57;97541.75;;;4.72;100.00
77279;BME280;66332;50.436;15.378;2024-02-21T23:31:38;97534.94;;;4.88;100.00
77279;BME280;66332;50.436;15.378;2024-02-21T23:36:20;97528.09;;;4.95;100.00
77279;BME280;66332;50.436;15.378;2024-02-21T23:41:00;97523.69;;;4.95;100.00
77279;BME280;66332;50.436;15.378;2024-02-21T23:45:41;97511.34;;;4.97;100.00
77279;BME280;66332;50.436;15.378;2024-02-21T23:50:22;97512.78;;;4.92;100.00
77279;BME280;66332;50.436;15.378;2024-02-21T23:55:03;97514.72;;;4.73;100.00
77279;BME280;66332;50.436;15.378;2024-02-21T23:59:44;97501.97;;;4.46;100.00
